Time;durP1;ratioP1;P1;durP2;ratioP2;P2;SDS_P1;SDS_P2;PMS_P1;PMS_P2;Temp;Humidity;BMP_temperature;BMP_pressure;BME280_temperature;BME280_humidity;BME280_pressure;Samples;Min_cycle;Max_cycle;Signal;HPM_P1;HPM_P2
2022/04/20 00:01:23;;;;;;;14.00;7.30;;;;;;;9.22;100.00;99517.81;4822499;29;20498;-78
2022/04/20 00:03:49;;;;;;;14.57;6.20;;;;;;;9.28;100.00;99540.72;4824406;29;20041;-77
2022/04/20 00:06:14;;;;;;;16.77;6.38;;;;;;;9.14;100.00;99528.34;4837977;29;20038;-77
2022/04/20 00:08:41;;;;;;;11.50;6.75;;;;;;;9.29;100.00;99537.13;4825088;29;20045;-78
2022/04/20 00:11:07;;;;;;;14.18;5.63;;;;;;;9.26;100.00;99526.97;4808408;29;20038;-78
2022/04/20 00:13:34;;;;;;;10.93;6.43;;;;;;;9.02;100.00;99529.72;4823689;29;20030;-79
2022/04/20 00:15:59;;;;;;;11.48;5.82;;;;;;;9.03;100.00;99520.88;4834197;29;20084;-79
2022/04/20 00:18:25;;;;;;;10.77;5.72;;;;;;;9.05;100.00;99521.56;4828213;29;20499;-79
2022/04/20 00:20:51;;;;;;;11.60;5.50;;;;;;;8.87;100.00;99512.16;4831028;29;20037;-78
2022/04/20 00:23:16;;;;;;;10.70;5.85;;;;;;;8.88;100.00;99518.19;4801634;29;20054;-76
2022/04/20 00:25:42;;;;;;;10.57;5.55;;;;;;;8.78;100.00;99528.88;4822909;29;20447;-78
2022/04/20 00:28:07;;;;;;;9.98;5.07;;;;;;;8.81;100.00;99512.81;4839854;29;20037;-78
2022/04/20 00:30:33;;;;;;;12.60;4.63;;;;;;;8.68;100.00;99508.97;4808279;29;20035;-78
2022/04/20 00:33:02;;;;;;;10.85;4.95;;;;;;;8.84;100.00;99509.84;4823655;29;20026;-78
2022/04/20 00:35:28;;;;;;;11.52;4.60;;;;;;;8.62;100.00;99514.06;4807842;29;20053;-80
2022/04/20 00:37:53;;;;;;;10.63;4.25;;;;;;;8.83;100.00;99513.47;4805003;29;20086;-79
2022/04/20 00:40:19;;;;;;;7.90;4.13;;;;;;;8.71;100.00;99518.25;4807170;29;20393;-78
2022/04/20 00:42:45;;;;;;;9.07;4.38;;;;;;;8.86;100.00;99510.53;4823076;29;20042;-78
2022/04/20 00:45:12;;;;;;;6.47;3.65;;;;;;;8.76;100.00;99517.75;4821286;29;20449;-78
2022/04/20 00:47:42;;;;;;;12.35;4.18;;;;;;;8.71;100.00;99523.50;4828871;29;20041;-78
2022/04/20 00:50:10;;;;;;;10.15;3.90;;;;;;;8.62;100.00;99514.84;4806935;29;20038;-77
2022/04/20 00:52:36;;;;;;;7.47;3.50;;;;;;;8.75;100.00;99519.56;4822051;29;20117;-78
2022/04/20 00:55:02;;;;;;;11.13;4.10;;;;;;;8.68;100.00;99524.66;4823053;29;20034;-78
2022/04/20 00:57:28;;;;;;;6.53;3.90;;;;;;;8.57;100.00;99509.31;4821823;29;20371;-77
2022/04/20 00:59:56;;;;;;;6.85;3.95;;;;;;;8.51;100.00;99520.47;4833148;29;20045;-78
2022/04/20 01:02:22;;;;;;;12.63;3.55;;;;;;;8.65;100.00;99524.19;4830695;29;20038;-78
2022/04/20 01:04:49;;;;;;;6.88;3.33;;;;;;;8.56;100.00;99537.31;4808000;29;20047;-77
2022/04/20 01:07:16;;;;;;;9.32;3.70;;;;;;;8.60;100.00;99537.78;4830306;29;20034;-77
2022/04/20 01:09:43;;;;;;;8.65;3.22;;;;;;;8.44;100.00;99530.75;4823821;29;20118;-78
2022/04/20 01:12:09;;;;;;;7.22;3.75;;;;;;;8.31;100.00;99510.38;4835332;29;20467;-79
2022/04/20 01:14:36;;;;;;;6.90;4.00;;;;;;;8.40;100.00;99527.66;4820109;29;20036;-77
2022/04/20 01:17:02;;;;;;;10.60;4.00;;;;;;;8.27;100.00;99511.69;4830321;29;20121;-78
2022/04/20 01:19:39;;;;;;;7.97;3.53;;;;;;;8.32;100.00;99505.94;4819846;29;20049;-77
2022/04/20 01:22:05;;;;;;;8.85;3.28;;;;;;;8.42;100.00;99515.22;4819265;29;20034;-77
2022/04/20 01:24:32;;;;;;;6.95;3.88;;;;;;;8.33;100.00;99508.41;4810314;29;20141;-78
2022/04/20 01:26:59;;;;;;;6.72;3.80;;;;;;;8.14;100.00;99507.78;4836472;29;20121;-77
2022/04/20 01:29:28;;;;;;;7.97;3.47;;;;;;;8.37;100.00;99519.34;4810445;29;20120;-77
2022/04/20 01:31:54;;;;;;;9.00;4.10;;;;;;;8.46;100.00;99510.47;4833332;29;20040;-78
2022/04/20 01:34:22;;;;;;;7.85;3.67;;;;;;;8.40;100.00;99517.19;4839708;29;20370;-77
2022/04/20 01:36:48;;;;;;;13.65;4.90;;;;;;;8.28;100.00;99493.19;4826350;29;20038;-78
2022/04/20 01:39:16;;;;;;;9.82;4.10;;;;;;;8.14;100.00;99502.56;4825688;29;20037;-78
2022/04/20 01:41:42;;;;;;;7.97;4.18;;;;;;;8.11;100.00;99526.44;4834830;29;20125;-77
2022/04/20 01:44:08;;;;;;;9.25;4.05;;;;;;;8.14;100.00;99513.03;4834241;29;20030;-78
2022/04/20 01:46:33;;;;;;;10.32;4.32;;;;;;;8.21;100.00;99504.50;4840552;29;20041;-77
2022/04/20 01:48:59;;;;;;;9.70;5.32;;;;;;;8.26;100.00;99510.06;4833551;29;20030;-78
2022/04/20 01:54:11;;;;;;;9.50;4.22;;;;;;;8.19;100.00;99514.31;4838144;29;20038;-77
2022/04/20 01:56:36;;;;;;;8.77;4.63;;;;;;;8.09;100.00;99502.25;4832308;29;20388;-78
2022/04/20 01:59:02;;;;;;;12.95;5.00;;;;;;;8.15;100.00;99488.50;4831790;29;20030;-77
2022/04/20 02:04:12;;;;;;;8.38;3.88;;;;;;;8.14;100.00;99507.78;4831804;29;20034;-77
2022/04/20 02:06:38;;;;;;;12.13;4.65;;;;;;;8.15;100.00;99503.38;4823051;29;20542;-78
2022/04/20 02:09:03;;;;;;;11.13;4.88;;;;;;;8.22;100.00;99508.75;4824610;29;20522;-78
2022/04/20 02:11:29;;;;;;;9.23;4.35;;;;;;;8.07;100.00;99491.16;4824517;29;20034;-77
2022/04/20 02:13:54;;;;;;;8.23;4.38;;;;;;;8.22;100.00;99513.97;4824521;29;20129;-78
2022/04/20 02:16:20;;;;;;;15.10;4.47;;;;;;;8.13;100.00;99490.47;4828908;29;20047;-78
2022/04/20 02:18:46;;;;;;;12.88;5.30;;;;;;;8.04;100.00;99491.47;4820739;29;20041;-77
2022/04/20 02:21:12;;;;;;;11.18;4.90;;;;;;;8.26;100.00;99497.78;4826118;29;20030;-78
2022/04/20 02:23:38;;;;;;;12.55;4.72;;;;;;;8.41;100.00;99512.78;4850996;29;20067;-78
2022/04/20 02:26:04;;;;;;;6.95;3.92;;;;;;;8.34;100.00;99486.50;4860895;29;20116;-78
2022/04/20 02:28:29;;;;;;;6.80;4.60;;;;;;;8.31;100.00;99489.44;4844719;29;20151;-78
2022/04/20 02:30:55;;;;;;;10.35;4.63;;;;;;;8.64;100.00;99507.66;4844596;29;20382;-78
2022/04/20 02:33:21;;;;;;;8.80;4.80;;;;;;;8.62;100.00;99507.00;4844900;29;20032;-78
2022/04/20 02:35:47;;;;;;;10.63;5.35;;;;;;;8.79;100.00;99494.69;4844886;29;20033;-77
2022/04/20 02:38:15;;;;;;;10.60;4.90;;;;;;;8.62;100.00;99512.25;4858616;29;20092;-78
2022/04/20 02:40:44;;;;;;;12.32;4.97;;;;;;;8.81;100.00;99497.94;4842283;29;20116;-77
2022/04/20 02:43:11;;;;;;;12.95;5.15;;;;;;;9.04;100.00;99509.41;4829508;29;20568;-78
2022/04/20 02:45:37;;;;;;;13.15;5.45;;;;;;;8.83;100.00;99505.59;4860040;29;20041;-78
2022/04/20 02:48:04;;;;;;;14.43;5.05;;;;;;;8.93;100.00;99506.22;4829963;29;20044;-78
2022/04/20 02:50:30;;;;;;;15.60;5.60;;;;;;;8.90;100.00;99505.75;4844226;29;20029;-77
2022/04/20 02:52:56;;;;;;;11.48;5.22;;;;;;;8.87;100.00;99506.91;4861310;29;20400;-77
2022/04/20 02:55:22;;;;;;;8.07;4.88;;;;;;;8.94;100.00;99513.09;4844488;29;20041;-77
2022/04/20 02:57:48;;;;;;;8.93;5.05;;;;;;;8.99;100.00;99510.75;4844137;29;20030;-77
2022/04/20 03:00:15;;;;;;;10.02;4.90;;;;;;;9.09;100.00;99514.97;4859802;29;20113;-78
2022/04/20 03:02:40;;;;;;;9.35;4.80;;;;;;;9.12;100.00;99507.56;4860553;29;20507;-77
2022/04/20 03:05:07;;;;;;;10.05;5.38;;;;;;;9.05;100.00;99508.47;4828627;29;20026;-78
2022/04/20 03:07:32;;;;;;;13.80;5.13;;;;;;;9.10;100.00;99508.75;4844604;29;20494;-77
2022/04/20 03:09:58;;;;;;;10.20;5.35;;;;;;;8.59;100.00;99509.97;4843698;29;20037;-78
2022/04/20 03:12:24;;;;;;;14.05;5.25;;;;;;;8.66;100.00;99508.31;4821708;29;20029;-78
2022/04/20 03:14:51;;;;;;;12.95;5.38;;;;;;;8.74;100.00;99514.50;4855119;29;20041;-79
2022/04/20 03:17:17;;;;;;;15.63;6.38;;;;;;;8.63;100.00;99503.41;4858520;29;20042;-78
2022/04/20 03:19:43;;;;;;;16.00;6.47;;;;;;;8.62;100.00;99504.38;4828946;29;20555;-78
2022/04/20 03:22:08;;;;;;;9.15;4.90;;;;;;;8.80;100.00;99511.19;4843719;29;20036;-77
2022/04/20 03:24:34;;;;;;;12.98;5.68;;;;;;;8.66;100.00;99507.50;4860583;29;20037;-78
2022/04/20 03:26:59;;;;;;;9.15;5.53;;;;;;;8.40;100.00;99485.81;4843861;29;20468;-78
2022/04/20 03:29:25;;;;;;;15.18;6.63;;;;;;;8.49;100.00;99520.59;4843711;29;20503;-77
2022/04/20 03:31:53;;;;;;;12.32;5.72;;;;;;;8.33;100.00;99489.25;4843782;29;20480;-77
2022/04/20 03:34:19;;;;;;;15.10;6.20;;;;;;;8.40;100.00;99517.19;4828456;29;20034;-77
2022/04/20 03:36:45;;;;;;;14.38;6.00;;;;;;;8.35;100.00;99524.75;4860273;29;20033;-77
2022/04/20 03:39:10;;;;;;;11.35;5.72;;;;;;;8.29;100.00;99531.44;4860386;29;20117;-77
2022/04/20 03:41:36;;;;;;;11.52;5.80;;;;;;;8.39;100.00;99525.22;4860334;29;20467;-78
2022/04/20 03:44:01;;;;;;;13.98;5.95;;;;;;;8.36;100.00;99515.91;4843949;29;20045;-78
2022/04/20 03:46:29;;;;;;;13.15;6.53;;;;;;;8.13;100.00;99516.63;4860421;29;20052;-78
2022/04/20 03:48:54;;;;;;;11.93;6.40;;;;;;;7.95;100.00;99477.59;4860444;29;20033;-76
2022/04/20 03:51:20;;;;;;;13.15;7.68;;;;;;;8.02;100.00;99498.66;4843423;29;20389;-78
2022/04/20 03:53:45;;;;;;;15.00;7.18;;;;;;;8.19;100.00;99511.69;4860623;29;20031;-78
2022/04/20 03:56:11;;;;;;;20.00;6.80;;;;;;;8.31;100.00;99522.63;4843799;29;20029;-77
2022/04/20 03:58:37;;;;;;;14.80;8.07;;;;;;;8.11;100.00;99518.59;4843695;29;20041;-79
2022/04/20 04:01:03;;;;;;;19.20;9.23;;;;;;;7.74;100.00;99491.19;4842050;29;20034;-77
2022/04/20 04:03:29;;;;;;;16.00;8.93;;;;;;;7.75;100.00;99503.28;4828337;29;20029;-77
2022/04/20 04:05:56;;;;;;;17.48;8.95;;;;;;;8.05;100.00;99507.97;4828235;29;20048;-78
2022/04/20 04:08:21;;;;;;;18.88;8.55;;;;;;;7.80;100.00;99484.50;4842200;29;20025;-77
2022/04/20 04:10:47;;;;;;;21.83;8.52;;;;;;;7.85;100.00;99498.69;4859463;29;21669;-77
2022/04/20 04:13:13;;;;;;;15.25;8.65;;;;;;;8.06;100.00;99515.66;4852091;29;20032;-78
2022/04/20 04:15:39;;;;;;;17.33;9.48;;;;;;;8.18;100.00;99529.22;4842253;29;20515;-78
2022/04/20 04:18:04;;;;;;;17.73;10.00;;;;;;;7.82;100.00;99500.81;4843071;29;20045;-78
2022/04/20 04:20:30;;;;;;;21.00;9.43;;;;;;;7.97;100.00;99511.41;4858583;29;20029;-78
2022/04/20 04:22:56;;;;;;;21.70;9.80;;;;;;;7.83;100.00;99521.56;4843276;29;20520;-78
2022/04/20 04:25:23;;;;;;;17.33;9.25;;;;;;;7.95;100.00;99513.38;4842769;29;20034;-78
2022/04/20 04:27:48;;;;;;;23.55;10.32;;;;;;;7.81;100.00;99502.59;4859633;29;20029;-78
2022/04/20 04:30:14;;;;;;;27.77;11.13;;;;;;;7.82;100.00;99483.34;4841138;29;20030;-78
2022/04/20 04:32:40;;;;;;;24.75;11.13;;;;;;;8.00;100.00;99505.84;4859330;29;20053;-77
2022/04/20 04:35:08;;;;;;;18.50;10.57;;;;;;;7.98;100.00;99497.38;4858400;29;20107;-79
2022/04/20 04:37:35;;;;;;;23.88;11.93;;;;;;;7.78;100.00;99512.59;4858209;29;20036;-78
2022/04/20 04:40:02;;;;;;;26.38;10.98;;;;;;;7.65;100.00;99505.22;4843083;29;20042;-78
2022/04/20 04:42:27;;;;;;;22.25;10.15;;;;;;;7.75;100.00;99486.75;4842670;29;20040;-78
2022/04/20 04:44:53;;;;;;;22.17;11.68;;;;;;;7.79;100.00;99509.81;4842713;29;20187;-78
2022/04/20 04:50:07;;;;;;;26.55;12.15;;;;;;;7.75;100.00;99518.97;4840618;29;20124;-78
2022/04/20 04:52:33;;;;;;;24.70;11.43;;;;;;;7.67;100.00;99513.75;4831513;29;20241;-77
2022/04/20 04:54:59;;;;;;;22.85;11.38;;;;;;;7.39;100.00;99514.03;4830156;29;20433;-78
2022/04/20 04:57:24;;;;;;;24.13;11.90;;;;;;;7.37;100.00;99506.38;4846088;29;20041;-77
2022/04/20 04:59:50;;;;;;;29.33;13.43;;;;;;;7.56;100.00;99500.00;4846834;29;20034;-79
2022/04/20 05:02:16;;;;;;;23.63;12.35;;;;;;;7.68;100.00;99524.00;4846867;29;20044;-78
2022/04/20 05:04:41;;;;;;;23.27;11.70;;;;;;;7.55;100.00;99519.28;4861645;29;20112;-78
2022/04/20 05:07:07;;;;;;;23.75;11.60;;;;;;;7.78;100.00;99529.06;4844890;29;20033;-78
2022/04/20 05:09:33;;;;;;;24.25;12.35;;;;;;;7.68;100.00;99533.66;4856519;29;20040;-78
2022/04/20 05:11:58;;;;;;;24.45;12.82;;;;;;;7.77;100.00;99518.81;4825827;29;20040;-78
2022/04/20 05:14:24;;;;;;;27.77;12.43;;;;;;;7.45;100.00;99487.25;4844891;29;20037;-79
2022/04/20 05:16:50;;;;;;;26.40;12.45;;;;;;;7.68;100.00;99523.22;4862675;29;20119;-78
2022/04/20 05:19:16;;;;;;;23.58;12.20;;;;;;;7.80;100.00;99500.97;4846247;29;20488;-77
2022/04/20 05:21:42;;;;;;;34.25;12.70;;;;;;;7.65;100.00;99494.78;4846708;29;20416;-78
2022/04/20 05:24:08;;;;;;;23.27;12.90;;;;;;;7.62;100.00;99516.00;4862129;29;20042;-77
2022/04/20 05:26:33;;;;;;;24.27;11.93;;;;;;;7.54;100.00;99485.47;4846467;29;20396;-78
2022/04/20 05:28:59;;;;;;;23.20;12.18;;;;;;;7.68;100.00;99512.75;4862536;29;20033;-78
2022/04/20 05:31:24;;;;;;;24.20;11.95;;;;;;;7.71;100.00;99488.91;4845548;29;20484;-77
2022/04/20 05:33:50;;;;;;;27.90;13.18;;;;;;;7.81;100.00;99518.28;4846500;29;20097;-78
2022/04/20 05:36:18;;;;;;;28.90;13.02;;;;;;;7.73;100.00;99494.78;4857752;29;20029;-78
2022/04/20 05:41:41;;;;;;;22.80;13.38;;;;;;;7.42;100.00;99477.97;4862027;29;20040;-77
2022/04/20 05:44:08;;;;;;;22.75;12.25;;;;;;;7.90;100.00;99524.31;4860300;29;20033;-78
2022/04/20 05:46:33;;;;;;;26.38;12.90;;;;;;;7.28;100.00;99476.00;4829976;29;20081;-78
2022/04/20 05:48:59;;;;;;;29.33;15.82;;;;;;;7.76;100.00;99520.59;4845200;29;20046;-78
2022/04/20 05:51:25;;;;;;;25.08;13.90;;;;;;;7.71;100.00;99518.47;4823812;29;20037;-79
2022/04/20 05:53:51;;;;;;;32.33;16.85;;;;;;;7.54;100.00;99475.84;4845481;29;20048;-78
2022/04/20 05:56:16;;;;;;;28.83;17.33;;;;;;;7.43;100.00;99478.78;4860747;29;20041;-77
2022/04/20 05:58:44;;;;;;;32.67;16.85;;;;;;;7.39;100.00;99498.38;4861712;29;20037;-79
2022/04/20 06:01:10;;;;;;;28.23;14.30;;;;;;;7.41;100.00;99496.41;4861086;29;20029;-78
2022/04/20 06:03:36;;;;;;;29.08;14.55;;;;;;;7.56;100.00;99514.84;4843624;29;20034;-82
2022/04/20 06:06:03;;;;;;;30.05;14.38;;;;;;;7.59;100.00;99504.09;4859234;29;20124;-82
2022/04/20 06:08:30;;;;;;;32.83;14.88;;;;;;;7.60;100.00;99494.47;4854028;29;20037;-79
2022/04/20 06:10:57;;;;;;;26.80;14.93;;;;;;;7.48;100.00;99513.09;4840734;29;20033;-78
2022/04/20 06:13:24;;;;;;;32.78;14.75;;;;;;;7.83;100.00;99521.56;4858963;29;20052;-81
2022/04/20 06:15:51;;;;;;;26.77;14.30;;;;;;;7.89;100.00;99504.41;4862513;29;20029;-81
2022/04/20 06:18:16;;;;;;;33.30;15.00;;;;;;;8.02;100.00;99516.97;4843474;29;20065;-81
2022/04/20 06:20:42;;;;;;;27.58;14.25;;;;;;;7.97;100.00;99522.72;4859811;29;20040;-80
2022/04/20 06:23:08;;;;;;;27.77;14.85;;;;;;;7.98;100.00;99507.81;4817573;29;20051;-80
2022/04/20 06:25:34;;;;;;;31.38;15.73;;;;;;;7.93;100.00;99508.31;4825395;29;20030;-81
2022/04/20 06:28:00;;;;;;;28.00;13.85;;;;;;;8.09;100.00;99517.13;4825991;29;20035;-80
2022/04/20 06:30:26;;;;;;;27.30;15.48;;;;;;;7.82;100.00;99509.47;4826642;29;20184;-81
2022/04/20 06:32:52;;;;;;;27.90;15.65;;;;;;;8.02;100.00;99503.09;4809875;29;20117;-81
2022/04/20 06:35:17;;;;;;;25.77;14.95;;;;;;;8.39;100.00;99497.25;4833217;29;20030;-80
2022/04/20 06:37:43;;;;;;;30.30;15.27;;;;;;;8.55;100.00;99508.69;4834194;29;20109;-81
2022/04/20 06:40:09;;;;;;;30.80;16.08;;;;;;;8.39;100.00;99520.81;4826333;29;20033;-81
2022/04/20 06:42:34;;;;;;;30.35;17.02;;;;;;;8.30;100.00;99498.28;4826229;29;20033;-81
2022/04/20 06:45:01;;;;;;;30.75;16.05;;;;;;;8.83;100.00;99526.53;4836145;29;20481;-80
2022/04/20 06:47:29;;;;;;;33.70;17.23;;;;;;;9.06;100.00;99523.97;4833889;29;20034;-80
2022/04/20 06:49:55;;;;;;;33.47;17.85;;;;;;;8.93;100.00;99526.34;4824944;29;20042;-82
2022/04/20 07:00:34;;;;;;;37.70;20.48;;;;;;;9.48;100.00;99519.31;4823082;29;20062;-80
2022/04/20 07:03:08;;;;;;;33.55;19.98;;;;;;;9.41;100.00;99518.34;4824624;29;20041;-83
2022/04/20 07:05:34;;;;;;;33.70;18.73;;;;;;;9.46;100.00;99516.03;4821875;29;20038;-81
2022/04/20 07:08:00;;;;;;;35.13;20.00;;;;;;;9.13;100.00;99532.78;4810050;29;20138;-80
2022/04/20 07:10:27;;;;;;;46.35;23.17;;;;;;;9.08;100.00;99524.63;4804479;29;20034;-80
2022/04/20 07:12:52;;;;;;;39.60;22.50;;;;;;;9.41;100.00;99536.69;4811033;29;20052;-83
2022/04/20 07:15:18;;;;;;;40.08;21.75;;;;;;;9.26;100.00;99511.28;4826096;29;20038;-82
2022/04/20 07:17:45;;;;;;;38.75;21.23;;;;;;;9.45;100.00;99509.19;4808092;29;20030;-80
2022/04/20 07:20:17;;;;;;;34.63;20.30;;;;;;;10.13;100.00;99530.19;4831647;29;20034;-80
2022/04/20 07:22:50;;;;;;;40.83;21.52;;;;;;;9.62;100.00;99514.25;4837392;29;20519;-82
2022/04/20 07:25:17;;;;;;;40.72;21.02;;;;;;;9.58;100.00;99546.06;4826794;29;20401;-81
2022/04/20 07:27:48;;;;;;;37.60;21.17;;;;;;;9.29;100.00;99531.88;4823961;29;20478;-81
2022/04/20 07:30:15;;;;;;;41.90;21.73;;;;;;;9.69;100.00;99536.19;4824822;29;20105;-81
2022/04/20 07:32:41;;;;;;;41.63;23.55;;;;;;;9.33;100.00;99542.00;4807012;29;20049;-81
2022/04/20 07:35:07;;;;;;;35.17;20.65;;;;;;;9.11;100.00;99539.19;4824794;29;20038;-82
2022/04/20 07:37:33;;;;;;;40.63;22.50;;;;;;;9.31;100.00;99533.50;4834507;29;20034;-80
2022/04/20 07:39:58;;;;;;;34.22;21.17;;;;;;;9.23;100.00;99522.06;4833046;29;20087;-81
2022/04/20 07:42:24;;;;;;;37.38;21.17;;;;;;;9.16;100.00;99505.44;4821810;29;20049;-80
2022/04/20 07:44:50;;;;;;;34.10;20.80;;;;;;;9.00;100.00;99501.91;4831332;29;20486;-80
2022/04/20 07:47:16;;;;;;;37.30;21.30;;;;;;;9.25;100.00;99517.50;4832238;29;20933;-80
2022/04/20 07:52:26;;;;;;;42.20;22.20;;;;;;;9.24;100.00;99522.91;4825096;29;20143;-81
2022/04/20 07:54:52;;;;;;;38.50;20.15;;;;;;;9.45;100.00;99518.81;4819804;29;20067;-81
2022/04/20 07:57:17;;;;;;;38.40;21.45;;;;;;;9.45;100.00;99517.03;4834131;29;20046;-81
2022/04/20 07:59:44;;;;;;;36.95;20.50;;;;;;;9.33;100.00;99518.41;4827981;29;20035;-81
2022/04/20 08:02:09;;;;;;;33.80;19.95;;;;;;;9.59;100.00;99523.31;4802710;29;20048;-82
2022/04/20 08:04:35;;;;;;;32.97;19.55;;;;;;;9.55;100.00;99499.25;4827334;29;20034;-81
2022/04/20 08:07:02;;;;;;;39.80;20.33;;;;;;;9.77;100.00;99528.22;4805476;29;20038;-81
2022/04/20 08:09:28;;;;;;;40.05;19.80;;;;;;;9.86;100.00;99500.97;4824295;29;20026;-81
2022/04/20 08:11:53;;;;;;;33.50;19.30;;;;;;;9.93;100.00;99485.34;4823392;29;21755;-82
2022/04/20 08:14:20;;;;;;;34.67;19.45;;;;;;;10.08;100.00;99518.59;4837731;29;20137;-81
2022/04/20 08:16:47;;;;;;;31.83;19.92;;;;;;;10.39;100.00;99518.44;4830033;29;20035;-82
2022/04/20 08:19:13;;;;;;;32.30;19.27;;;;;;;10.50;100.00;99513.78;4810106;29;20053;-80
2022/04/20 08:21:39;;;;;;;31.60;18.77;;;;;;;10.47;100.00;99504.44;4829800;29;20041;-81
2022/04/20 08:24:05;;;;;;;32.47;19.33;;;;;;;10.45;100.00;99519.56;4808033;29;20501;-81
2022/04/20 08:26:30;;;;;;;31.83;19.30;;;;;;;10.63;100.00;99500.81;4824470;29;20030;-81
2022/04/20 08:28:56;;;;;;;29.38;19.83;;;;;;;10.98;100.00;99503.63;4805162;29;20049;-82
2022/04/20 08:31:22;;;;;;;33.55;19.83;;;;;;;11.04;100.00;99477.63;4834226;29;20033;-82
2022/04/20 08:33:48;;;;;;;36.13;17.05;;;;;;;11.38;100.00;99520.81;4835140;29;20430;-81
2022/04/20 08:36:14;;;;;;;26.00;15.98;;;;;;;11.51;100.00;99513.03;4820335;29;20038;-83
2022/04/20 08:38:40;;;;;;;32.65;16.92;;;;;;;11.39;100.00;99518.00;4800868;29;20070;-82
2022/04/20 08:41:11;;;;;;;25.88;15.18;;;;;;;10.85;100.00;99524.50;4819568;29;20117;-82
2022/04/20 08:43:40;;;;;;;25.38;14.13;;;;;;;11.39;100.00;99519.78;4808862;29;20035;-82
2022/04/20 08:46:09;;;;;;;25.83;15.77;;;;;;;11.55;100.00;99503.78;4829278;29;20063;-82
2022/04/20 08:48:35;;;;;;;29.75;16.05;;;;;;;11.47;100.00;99514.44;4830388;29;20435;-82
2022/04/20 08:51:04;;;;;;;28.27;16.98;;;;;;;11.08;100.00;99513.03;4831260;29;20039;-82
2022/04/20 08:53:29;;;;;;;28.77;17.58;;;;;;;11.39;100.00;99509.28;4824459;29;20030;-83
2022/04/20 08:58:44;;;;;;;25.85;17.05;;;;;;;11.34;100.00;99507.25;4828951;29;20053;-83
2022/04/20 09:01:12;;;;;;;26.55;16.20;;;;;;;11.47;100.00;99508.34;4804920;29;20026;-83
2022/04/20 09:03:38;;;;;;;26.00;14.32;;;;;;;11.95;100.00;99497.19;4807401;29;20041;-83
2022/04/20 09:06:05;;;;;;;32.00;15.68;;;;;;;11.81;100.00;99468.19;4818408;29;20081;-80
2022/04/20 09:08:31;;;;;;;25.10;14.80;;;;;;;12.10;100.00;99487.41;4825458;29;20044;-83
2022/04/20 09:10:59;;;;;;;25.02;14.18;;;;;;;12.18;100.00;99489.06;4816941;29;20034;-83
2022/04/20 09:13:35;;;;;;;26.90;14.25;;;;;;;12.07;100.00;99495.69;4806061;29;20049;-82
2022/04/20 09:16:09;;;;;;;26.88;15.45;;;;;;;12.27;100.00;99492.38;4823369;29;20117;-83
2022/04/20 09:18:36;;;;;;;26.67;14.63;;;;;;;12.33;100.00;99481.06;4823697;29;20049;-82
2022/04/20 09:21:10;;;;;;;29.08;14.90;;;;;;;12.34;100.00;99479.25;4823805;29;20034;-83
2022/04/20 09:23:37;;;;;;;22.77;15.00;;;;;;;12.14;100.00;99441.28;4828239;29;20046;-83
2022/04/20 09:26:14;;;;;;;29.73;16.27;;;;;;;12.27;100.00;99484.47;4819245;29;20539;-81
2022/04/20 09:28:44;;;;;;;24.00;15.38;;;;;;;12.46;100.00;99476.88;4819918;29;20553;-82
2022/04/20 09:31:11;;;;;;;26.83;14.73;;;;;;;12.33;100.00;99473.16;4835023;29;20045;-82
2022/04/20 09:33:44;;;;;;;26.67;16.52;;;;;;;12.83;100.00;99474.78;4822378;29;20053;-82
2022/04/20 09:36:11;;;;;;;27.53;16.17;;;;;;;12.92;100.00;99456.97;4820927;29;20094;-81
2022/04/20 09:38:39;;;;;;;29.45;16.85;;;;;;;12.97;100.00;99458.00;4809203;29;20342;-82
2022/04/20 09:41:09;;;;;;;29.45;18.20;;;;;;;12.94;100.00;99453.09;4826526;29;20034;-84
2022/04/20 09:43:36;;;;;;;27.23;16.60;;;;;;;12.98;100.00;99459.63;4826640;29;20063;-84
2022/04/20 09:49:05;;;;;;;30.50;16.35;;;;;;;13.10;100.00;99457.19;4832171;29;20035;-83
2022/04/20 09:51:40;;;;;;;26.60;17.17;;;;;;;13.34;100.00;99456.78;4825463;29;20042;-83
2022/04/20 09:54:27;;;;;;;25.88;17.05;;;;;;;13.21;100.00;99447.88;4838513;29;20042;-83
2022/04/20 09:57:13;;;;;;;29.67;16.23;;;;;;;13.52;100.00;99435.94;4826562;29;20477;-83
2022/04/20 10:00:00;;;;;;;28.73;17.05;;;;;;;13.85;100.00;99448.28;4829286;29;20478;-83
2022/04/20 10:02:28;;;;;;;27.23;16.60;;;;;;;13.69;100.00;99438.16;4832742;29;20447;-82
2022/04/20 10:04:55;;;;;;;31.52;16.38;;;;;;;13.74;100.00;99440.19;4825178;29;20049;-83
2022/04/20 10:07:20;;;;;;;26.75;17.15;;;;;;;13.70;100.00;99414.22;4823409;29;20034;-82
2022/04/20 10:09:46;;;;;;;25.52;17.10;;;;;;;13.73;100.00;99428.00;4810399;29;20038;-83
2022/04/20 10:12:17;;;;;;;29.52;16.40;;;;;;;13.97;100.00;99426.56;4827404;29;20506;-82
2022/04/20 10:17:43;;;;;;;25.33;17.05;;;;;;;14.25;99.30;99420.16;4836706;29;20038;-83
2022/04/20 10:20:09;;;;;;;31.10;16.80;;;;;;;14.49;98.01;99415.16;4833892;29;20038;-82
2022/04/20 10:22:37;;;;;;;32.78;17.27;;;;;;;14.39;98.87;99411.16;4842318;29;20492;-83
2022/04/20 10:25:05;;;;;;;29.65;17.30;;;;;;;14.45;97.61;99417.44;4846509;29;20233;-83
2022/04/20 10:27:33;;;;;;;29.70;17.30;;;;;;;14.63;98.04;99406.16;4862885;29;20041;-83
2022/04/20 10:30:03;;;;;;;25.08;16.55;;;;;;;14.90;97.55;99408.66;4863176;29;20045;-83
2022/04/20 10:32:45;;;;;;;23.90;15.77;;;;;;;14.05;96.52;99399.91;4846276;29;20042;-82
2022/04/20 10:35:11;;;;;;;25.08;14.80;;;;;;;14.62;94.67;99399.25;4861030;29;20057;-82
2022/04/20 10:37:38;;;;;;;24.35;14.02;;;;;;;14.89;95.88;99393.81;4843607;29;20595;-82
2022/04/20 10:40:17;;;;;;;18.25;12.93;;;;;;;14.41;92.20;99380.06;4846342;29;20030;-82
2022/04/20 10:42:46;;;;;;;21.70;14.13;;;;;;;14.29;91.97;99357.97;4858290;29;20037;-83
2022/04/20 10:45:12;;;;;;;20.50;14.27;;;;;;;14.82;90.84;99383.28;4860270;29;20034;-84
2022/04/20 10:47:42;;;;;;;21.67;14.25;;;;;;;15.09;89.46;99396.34;4842339;29;20060;-83
2022/04/20 10:50:16;;;;;;;20.17;14.48;;;;;;;14.90;90.26;99382.22;4847555;29;20041;-83
2022/04/20 10:52:46;;;;;;;19.48;14.55;;;;;;;15.09;90.17;99395.50;4846008;29;20082;-84
2022/04/20 10:55:12;;;;;;;19.90;15.50;;;;;;;14.81;90.53;99396.75;4841373;29;20034;-83
2022/04/20 10:57:40;;;;;;;20.67;14.48;;;;;;;15.38;90.34;99390.63;4842277;29;20065;-84
2022/04/20 11:00:19;;;;;;;22.73;14.07;;;;;;;14.98;89.00;99399.66;4846135;29;20483;-83
2022/04/20 11:03:15;;;;;;;18.17;14.80;;;;;;;15.23;89.95;99390.91;4830709;29;20075;-84
2022/04/20 11:05:55;;;;;;;17.60;15.43;;;;;;;15.88;88.96;99391.53;4839322;29;20053;-82
2022/04/20 11:08:24;;;;;;;22.75;15.55;;;;;;;15.45;88.25;99364.91;4843847;29;20481;-83
2022/04/20 11:18:38;;;;;;;21.55;15.23;;;;;;;15.26;89.12;99378.09;4845594;29;20038;-83
2022/04/20 11:19:11;;;;;;;17.73;14.50;;;;;;;15.92;85.54;99364.44;4843081;29;20161;-84
2022/04/20 11:21:51;;;;;;;17.55;14.57;;;;;;;16.22;85.81;99352.25;4853602;29;20041;-83
2022/04/20 11:24:28;;;;;;;17.55;13.90;;;;;;;16.16;84.24;99356.59;4834213;29;20062;-80
2022/04/20 11:26:55;;;;;;;14.93;13.07;;;;;;;16.62;85.23;99351.72;4808777;29;20034;-83
2022/04/20 11:29:30;;;;;;;14.40;11.50;;;;;;;16.40;83.40;99349.56;4835976;29;20173;-82
2022/04/20 11:32:02;;;;;;;13.55;11.45;;;;;;;16.73;80.06;99342.16;4838417;29;20030;-82
2022/04/20 11:34:36;;;;;;;14.05;11.95;;;;;;;16.69;77.85;99356.91;4823744;29;20030;-83
2022/04/20 11:37:04;;;;;;;;;;;;;;;17.32;81.93;99349.41;4824301;29;20136;-82
2022/04/20 11:39:30;;;;;;;13.45;10.27;;;;;;;17.54;76.78;99335.53;4808564;29;19916;-82
2022/04/20 11:41:58;;;;;;;14.52;10.73;;;;;;;17.36;74.88;99326.66;4810180;29;20030;-83
2022/04/20 11:44:29;;;;;;;15.57;10.80;;;;;;;16.97;74.39;99343.00;4824812;29;20042;-83
2022/04/20 11:47:01;;;;;;;12.52;10.65;;;;;;;17.03;74.91;99329.91;4832716;29;20070;-83
2022/04/20 11:49:39;;;;;;;11.98;10.85;;;;;;;17.68;75.20;99328.94;4821399;29;20030;-83
2022/04/20 11:52:07;;;;;;;17.73;10.85;;;;;;;16.85;73.69;99339.53;4822510;29;20034;-82
2022/04/20 11:54:34;;;;;;;14.48;10.57;;;;;;;17.09;73.17;99328.97;4801970;29;20130;-82
2022/04/20 11:57:01;;;;;;;11.35;10.20;;;;;;;17.05;71.72;99322.53;4824492;29;20250;-83